Flournoy, California
Current Conditions -  °F | °C
As of 12:54 AM on Wednesday 28 Jan 2015 (Local Time) from KRBL Reporting Station
Haze Haze  
Wind Chill: 43°   Ceiling: Unl
Heat Index: 46°   Visibility: 5mi
Dew Point: 43°   Wind: 6mph
Humidity: 89%   Direction: 320°NW
Pressure: 30.3"   Gusts: NA
Location:  39.9°N, 122.51°W
Report Text: KRBL 280854Z AUTO 32005KT 5SM BR CLR 08/06 A3030 RMK AO2 SLP258 T00780061 50003
Loading
Personal Weather Stations






























Interactive Weather Map New forecast layout! Learn more

10-Day Weather Forecast

Advertisements
Track Severe Weather on mobile